createdAt,value
2023-03-25T00:01:26.003Z,100.00
2023-03-25T00:03:53.588Z,100.00
2023-03-25T00:06:21.137Z,100.00
2023-03-25T00:08:48.788Z,100.00
2023-03-25T00:11:16.285Z,100.00
2023-03-25T00:13:44.960Z,100.00
2023-03-25T00:16:12.235Z,100.00
2023-03-25T00:18:41.121Z,100.00
2023-03-25T00:21:12.077Z,100.00
2023-03-25T00:23:40.635Z,100.00
2023-03-25T00:26:10.364Z,100.00
2023-03-25T00:28:39.152Z,100.00
2023-03-25T00:31:13.816Z,100.00
2023-03-25T00:33:44.616Z,100.00
2023-03-25T00:36:13.957Z,100.00
2023-03-25T00:38:43.848Z,100.00
2023-03-25T00:41:26.087Z,100.00
2023-03-25T00:43:56.477Z,100.00
2023-03-25T00:46:27.321Z,100.00
2023-03-25T00:48:57.577Z,100.00
2023-03-25T00:51:26.282Z,100.00
2023-03-25T00:53:56.082Z,100.00
2023-03-25T00:56:24.724Z,100.00
2023-03-25T00:58:52.920Z,100.00
2023-03-25T01:01:27.692Z,100.00
2023-03-25T01:03:59.519Z,100.00
2023-03-25T01:06:32.817Z,100.00
2023-03-25T01:09:01.829Z,100.00
2023-03-25T01:11:35.039Z,100.00
2023-03-25T01:14:04.605Z,100.00
2023-03-25T01:16:32.710Z,100.00
2023-03-25T01:18:59.972Z,100.00
2023-03-25T01:21:27.649Z,100.00
2023-03-25T01:23:56.012Z,100.00
2023-03-25T01:26:23.487Z,100.00
2023-03-25T01:28:52.314Z,100.00
2023-03-25T01:31:20.359Z,100.00
2023-03-25T01:33:49.596Z,100.00
2023-03-25T01:36:16.921Z,100.00
2023-03-25T01:38:44.297Z,100.00
2023-03-25T01:41:12.998Z,100.00
2023-03-25T01:43:40.339Z,100.00
2023-03-25T01:46:17.568Z,100.00
2023-03-25T01:48:45.554Z,100.00
2023-03-25T01:51:17.460Z,100.00
2023-03-25T01:53:45.709Z,100.00
2023-03-25T01:56:20.947Z,100.00
2023-03-25T01:58:53.072Z,100.00
2023-03-25T02:01:22.573Z,100.00
2023-03-25T02:04:03.470Z,100.00
2023-03-25T02:06:45.367Z,100.00
2023-03-25T02:09:16.794Z,100.00
2023-03-25T02:11:43.929Z,100.00
2023-03-25T02:14:15.779Z,100.00
2023-03-25T02:16:54.527Z,100.00
2023-03-25T02:19:37.347Z,100.00
2023-03-25T02:22:38.160Z,100.00
2023-03-25T02:25:21.639Z,100.00
2023-03-25T02:28:26.052Z,100.00
2023-03-25T02:31:08.581Z,100.00
2023-03-25T02:34:10.273Z,100.00
2023-03-25T02:36:52.733Z,100.00
2023-03-25T02:40:01.057Z,100.00
2023-03-25T02:42:38.436Z,100.00
2023-03-25T02:45:21.288Z,100.00
2023-03-25T02:48:28.409Z,100.00
2023-03-25T02:50:58.770Z,100.00
2023-03-25T02:53:34.151Z,100.00
2023-03-25T02:56:06.563Z,100.00
2023-03-25T02:58:34.408Z,100.00
2023-03-25T03:01:02.794Z,100.00
2023-03-25T03:03:30.277Z,100.00
2023-03-25T03:06:01.079Z,100.00
2023-03-25T03:08:54.345Z,100.00
2023-03-25T03:11:43.871Z,100.00
2023-03-25T03:14:23.546Z,100.00
2023-03-25T03:17:18.576Z,100.00
2023-03-25T03:19:59.321Z,100.00
2023-03-25T03:22:34.798Z,100.00
2023-03-25T03:25:28.584Z,100.00
2023-03-25T03:28:00.485Z,100.00
2023-03-25T03:30:39.565Z,100.00
2023-03-25T03:33:13.758Z,99.32
2023-03-25T03:36:06.912Z,99.53
2023-03-25T03:38:40.585Z,99.41
2023-03-25T03:41:10.056Z,99.32
2023-03-25T03:43:47.638Z,99.48
2023-03-25T03:46:46.574Z,100.00
2023-03-25T03:49:18.193Z,100.00
2023-03-25T03:52:02.689Z,100.00
2023-03-25T03:54:47.653Z,100.00
2023-03-25T03:57:41.756Z,99.81
2023-03-25T04:01:00.323Z,100.00
2023-03-25T04:03:39.172Z,100.00
2023-03-25T04:06:47.991Z,100.00
2023-03-25T04:09:27.735Z,100.00
2023-03-25T04:12:06.070Z,100.00
2023-03-25T04:14:33.647Z,99.77
2023-03-25T04:17:01.152Z,99.94
2023-03-25T04:19:28.703Z,99.66
2023-03-25T04:21:56.070Z,99.75
2023-03-25T04:24:25.346Z,100.00
2023-03-25T04:26:53.382Z,100.00
2023-03-25T04:29:20.392Z,99.55
2023-03-25T04:31:50.223Z,99.46
2023-03-25T04:34:17.557Z,98.25
2023-03-25T04:36:44.614Z,97.93
2023-03-25T04:39:18.035Z,97.71
2023-03-25T04:41:45.475Z,97.16
2023-03-25T04:44:13.045Z,97.24
2023-03-25T04:46:41.610Z,96.85
2023-03-25T04:49:19.455Z,96.13
2023-03-25T04:51:52.647Z,95.75
2023-03-25T04:54:21.905Z,96.26
2023-03-25T04:56:51.434Z,95.74
2023-03-25T04:59:20.085Z,95.72
2023-03-25T05:01:50.757Z,95.42
2023-03-25T05:04:19.178Z,94.72
2023-03-25T05:06:50.848Z,95.16
2023-03-25T05:09:25.696Z,94.67
2023-03-25T05:11:54.192Z,94.45
2023-03-25T05:14:22.636Z,94.58
2023-03-25T05:16:50.415Z,94.71
2023-03-25T05:19:24.993Z,94.20
2023-03-25T05:21:52.613Z,94.09
2023-03-25T05:24:20.052Z,93.98
2023-03-25T05:26:47.323Z,94.03
2023-03-25T05:29:16.346Z,94.09
2023-03-25T05:31:46.670Z,94.05
2023-03-25T05:34:15.004Z,94.07
2023-03-25T05:36:42.125Z,94.71
2023-03-25T05:39:11.178Z,95.42
2023-03-25T05:41:41.845Z,95.81
2023-03-25T05:44:15.122Z,96.50
2023-03-25T05:46:43.325Z,96.80
2023-03-25T05:49:10.830Z,97.51
2023-03-25T05:51:38.890Z,97.41
2023-03-25T05:54:12.034Z,97.93
2023-03-25T05:56:40.352Z,97.24
2023-03-25T05:59:09.605Z,96.92
2023-03-25T06:01:39.671Z,96.17
2023-03-25T06:04:10.610Z,95.39
2023-03-25T06:06:40.467Z,95.34
2023-03-25T06:09:10.412Z,94.20
2023-03-25T06:11:41.017Z,94.46
2023-03-25T06:14:12.457Z,93.09
2023-03-25T06:16:41.042Z,92.00
2023-03-25T06:19:10.479Z,92.00
2023-03-25T06:21:39.149Z,90.92
2023-03-25T06:24:08.883Z,90.04
2023-03-25T06:26:36.485Z,89.26
2023-03-25T06:29:04.953Z,88.88
2023-03-25T06:31:34.342Z,89.38
2023-03-25T06:34:02.107Z,88.96
2023-03-25T06:36:29.836Z,87.60
2023-03-25T06:38:58.680Z,87.63
2023-03-25T06:41:28.429Z,87.73
2023-03-25T06:43:55.732Z,88.85
2023-03-25T06:46:23.343Z,88.46
2023-03-25T06:48:50.771Z,88.22
2023-03-25T06:51:18.225Z,87.16
2023-03-25T06:53:46.801Z,87.35
2023-03-25T06:56:14.163Z,85.21
2023-03-25T06:58:42.250Z,84.06
2023-03-25T07:01:11.547Z,83.47
2023-03-25T07:03:39.367Z,82.36
2023-03-25T07:06:07.476Z,79.88
2023-03-25T07:08:35.529Z,78.54
2023-03-25T07:11:06.458Z,77.74
2023-03-25T07:13:34.550Z,76.33
2023-03-25T07:16:03.421Z,75.88
2023-03-25T07:18:31.297Z,74.60
2023-03-25T07:20:58.582Z,75.31
2023-03-25T07:23:26.286Z,74.88
2023-03-25T07:25:53.967Z,73.35
2023-03-25T07:28:22.281Z,73.31
2023-03-25T07:30:49.823Z,74.80
2023-03-25T07:33:17.223Z,74.66
2023-03-25T07:35:45.784Z,74.42
2023-03-25T07:38:13.317Z,75.13
2023-03-25T07:40:40.975Z,74.12
2023-03-25T07:43:08.286Z,74.79
2023-03-25T07:45:43.424Z,72.73
2023-03-25T07:48:14.990Z,72.72
2023-03-25T07:50:44.064Z,71.76
2023-03-25T07:53:11.769Z,72.88
2023-03-25T07:55:38.935Z,71.84
2023-03-25T07:58:06.280Z,74.09
2023-03-25T08:00:34.070Z,75.64
2023-03-25T08:03:02.650Z,74.92
2023-03-25T08:05:31.799Z,74.46
2023-03-25T08:08:02.140Z,76.24
2023-03-25T08:10:36.451Z,76.57
2023-03-25T08:13:04.967Z,74.46
2023-03-25T08:15:32.408Z,74.98
2023-03-25T08:18:07.533Z,75.42
2023-03-25T08:20:36.095Z,74.16
2023-03-25T08:23:03.512Z,73.64
2023-03-25T08:25:32.949Z,72.88
2023-03-25T08:28:00.479Z,73.19
2023-03-25T08:30:27.854Z,74.35
2023-03-25T08:32:55.660Z,74.06
2023-03-25T08:35:24.783Z,75.11
2023-03-25T08:37:51.955Z,76.23
2023-03-25T08:40:20.207Z,76.32
2023-03-25T08:42:47.839Z,75.30
2023-03-25T08:45:16.261Z,75.57
2023-03-25T08:47:49.862Z,73.69
2023-03-25T08:50:17.305Z,74.64
2023-03-25T08:52:44.620Z,73.33
2023-03-25T08:55:12.606Z,74.19
2023-03-25T08:57:40.062Z,73.32
2023-03-25T09:00:14.329Z,70.77
2023-03-25T09:02:44.251Z,68.78
2023-03-25T09:05:13.832Z,69.62
2023-03-25T09:07:41.202Z,65.04
2023-03-25T09:10:10.932Z,65.63
2023-03-25T09:12:39.733Z,68.81
2023-03-25T09:15:07.860Z,67.16
2023-03-25T09:17:35.154Z,68.18
2023-03-25T09:20:02.679Z,68.05
2023-03-25T09:22:30.137Z,67.30
2023-03-25T09:24:58.484Z,67.17
2023-03-25T09:27:28.223Z,67.44
2023-03-25T09:29:55.561Z,67.63
2023-03-25T09:32:22.953Z,68.19
2023-03-25T09:34:50.404Z,68.11
2023-03-25T09:37:18.082Z,66.01
2023-03-25T09:39:45.564Z,65.88
2023-03-25T09:42:33.484Z,64.86
2023-03-25T09:45:32.718Z,67.46
2023-03-25T09:48:28.917Z,68.64
2023-03-25T09:51:05.649Z,69.39
2023-03-25T09:53:37.246Z,68.29
2023-03-25T09:56:08.119Z,69.85
2023-03-25T09:58:46.109Z,69.00
2023-03-25T10:01:27.747Z,68.29
2023-03-25T10:04:29.315Z,66.50
2023-03-25T10:07:27.756Z,67.96
2023-03-25T10:10:22.899Z,70.20
2023-03-25T10:13:31.608Z,70.26
2023-03-25T10:16:18.883Z,69.98
2023-03-25T10:19:11.610Z,71.22
2023-03-25T10:21:54.041Z,70.35
2023-03-25T10:24:32.887Z,70.07
2023-03-25T10:26:59.927Z,69.01
2023-03-25T10:29:41.449Z,69.28
2023-03-25T10:32:17.658Z,67.55
2023-03-25T10:34:54.558Z,69.09
2023-03-25T10:37:34.386Z,66.52
2023-03-25T10:40:14.807Z,67.64
2023-03-25T10:43:13.638Z,66.45
2023-03-25T10:45:43.061Z,64.29
2023-03-25T10:48:29.614Z,65.18
2023-03-25T10:51:30.880Z,65.89
2023-03-25T10:53:58.936Z,65.16
2023-03-25T10:56:42.777Z,63.29
2023-03-25T10:59:38.764Z,62.15
2023-03-25T11:02:29.047Z,61.77
2023-03-25T11:05:06.834Z,61.27
2023-03-25T11:07:44.799Z,60.71
2023-03-25T11:10:21.624Z,59.31
2023-03-25T11:12:54.386Z,59.40
2023-03-25T11:15:30.168Z,58.36
2023-03-25T11:18:08.415Z,57.75
2023-03-25T11:20:56.980Z,59.75
2023-03-25T11:23:50.253Z,60.53
2023-03-25T11:26:24.040Z,61.29
2023-03-25T11:29:02.800Z,58.46
2023-03-25T11:31:38.316Z,58.97
2023-03-25T11:34:11.714Z,56.72
2023-03-25T11:36:55.451Z,56.02
2023-03-25T11:39:33.308Z,55.41
2023-03-25T11:42:11.170Z,56.14
2023-03-25T11:44:40.122Z,55.67
2023-03-25T11:47:11.232Z,56.94
2023-03-25T11:49:41.805Z,56.51
2023-03-25T11:52:22.738Z,54.54
2023-03-25T11:54:53.254Z,54.71
2023-03-25T11:57:27.572Z,54.33
2023-03-25T12:00:18.611Z,52.60
2023-03-25T12:02:46.518Z,53.37
2023-03-25T12:05:17.023Z,54.39
2023-03-25T12:07:49.360Z,53.00
2023-03-25T12:10:40.087Z,53.44
2023-03-25T12:13:32.341Z,52.45
2023-03-25T12:16:35.970Z,52.45
2023-03-25T12:19:14.067Z,54.35
2023-03-25T12:21:59.092Z,53.81
2023-03-25T12:24:37.065Z,55.02
2023-03-25T12:27:23.333Z,52.51
2023-03-25T12:30:12.820Z,52.80
2023-03-25T12:33:04.517Z,53.78
2023-03-25T12:35:50.639Z,54.24
2023-03-25T12:38:33.013Z,53.12
2023-03-25T12:41:23.538Z,54.46
2023-03-25T12:44:34.400Z,54.86
2023-03-25T12:47:14.887Z,55.72
2023-03-25T12:49:57.494Z,57.07
2023-03-25T12:53:14.181Z,56.27
2023-03-25T12:56:14.632Z,54.89
2023-03-25T12:58:56.311Z,57.11
2023-03-25T13:01:43.324Z,58.02
2023-03-25T13:04:35.042Z,56.97
2023-03-25T13:07:15.077Z,60.59
2023-03-25T13:10:12.447Z,60.40
2023-03-25T13:12:50.582Z,58.05
2023-03-25T13:15:33.052Z,58.75
2023-03-25T13:18:07.638Z,56.75
2023-03-25T13:20:42.905Z,58.16
2023-03-25T13:23:18.074Z,58.51
2023-03-25T13:25:57.969Z,60.01
2023-03-25T13:28:47.151Z,60.07
2023-03-25T13:31:27.906Z,60.18
2023-03-25T13:34:23.639Z,61.45
2023-03-25T13:37:03.660Z,61.64
2023-03-25T13:40:10.974Z,60.86
2023-03-25T13:42:52.714Z,59.99
2023-03-25T13:45:22.476Z,59.18
2023-03-25T13:48:24.019Z,57.69
2023-03-25T13:50:54.057Z,57.88
2023-03-25T13:53:49.312Z,55.86
2023-03-25T13:56:46.862Z,54.17
2023-03-25T13:59:40.327Z,54.06
2023-03-25T14:02:40.258Z,51.15
2023-03-25T14:05:25.834Z,51.32
2023-03-25T14:08:24.009Z,52.57
2023-03-25T14:11:03.244Z,52.56
2023-03-25T14:13:39.029Z,51.78
2023-03-25T14:16:13.687Z,52.29
2023-03-25T14:18:53.839Z,52.71
2023-03-25T14:21:35.356Z,52.77
2023-03-25T14:24:10.085Z,54.88
2023-03-25T14:26:43.988Z,55.59
2023-03-25T14:29:32.668Z,55.18
2023-03-25T14:32:04.912Z,53.68
2023-03-25T14:34:32.299Z,52.82
2023-03-25T14:36:59.947Z,54.52
2023-03-25T14:39:33.180Z,55.61
2023-03-25T14:42:13.539Z,55.44
2023-03-25T14:44:42.778Z,54.57
2023-03-25T14:47:16.444Z,53.66
2023-03-25T14:49:55.261Z,53.12
2023-03-25T14:52:31.313Z,53.82
2023-03-25T14:55:05.566Z,53.56
2023-03-25T14:57:41.114Z,55.42
2023-03-25T15:00:14.202Z,54.59
2023-03-25T15:02:44.047Z,55.88
2023-03-25T15:05:19.913Z,57.09
2023-03-25T15:08:05.230Z,58.63
2023-03-25T15:10:49.494Z,59.62
2023-03-25T15:13:35.274Z,61.54
2023-03-25T15:16:19.848Z,61.56
2023-03-25T15:18:49.834Z,62.21
2023-03-25T15:21:18.538Z,62.23
2023-03-25T15:23:53.473Z,63.02
2023-03-25T15:26:30.700Z,65.93
2023-03-25T15:29:20.077Z,68.45
2023-03-25T15:32:09.178Z,70.99
2023-03-25T15:34:54.951Z,79.69
2023-03-25T15:37:47.081Z,80.96
2023-03-25T15:40:32.377Z,77.40
2023-03-25T15:43:02.502Z,75.57
2023-03-25T15:45:56.304Z,76.23
2023-03-25T15:48:42.667Z,77.47
2023-03-25T15:51:25.216Z,76.06
2023-03-25T15:54:25.182Z,73.03
2023-03-25T15:56:57.630Z,67.90
2023-03-25T15:59:45.695Z,64.55
2023-03-25T16:02:28.423Z,63.29
2023-03-25T16:04:56.155Z,61.85
2023-03-25T16:07:28.965Z,63.71
2023-03-25T16:10:09.534Z,66.96
2023-03-25T16:12:37.030Z,68.83
2023-03-25T16:15:07.405Z,69.05
2023-03-25T16:17:35.420Z,71.44
2023-03-25T16:20:06.400Z,74.23
2023-03-25T16:22:43.482Z,75.53
2023-03-25T16:25:17.977Z,77.09
2023-03-25T16:27:52.026Z,78.01
2023-03-25T16:30:26.800Z,77.84
2023-03-25T16:33:12.093Z,77.12
2023-03-25T16:35:45.999Z,76.41
2023-03-25T16:38:18.775Z,75.78
2023-03-25T16:40:49.144Z,74.76
2023-03-25T16:43:22.466Z,75.16
2023-03-25T16:45:52.144Z,74.42
2023-03-25T16:48:29.736Z,74.58
2023-03-25T16:51:03.210Z,73.66
2023-03-25T16:53:35.658Z,73.96
2023-03-25T16:56:31.190Z,75.47
2023-03-25T16:59:01.262Z,76.56
2023-03-25T17:01:34.283Z,77.09
2023-03-25T17:04:19.846Z,77.46
2023-03-25T17:06:53.296Z,76.92
2023-03-25T17:09:23.925Z,75.67
2023-03-25T17:11:57.668Z,76.21
2023-03-25T17:14:34.009Z,76.30
2023-03-25T17:17:27.159Z,76.40
2023-03-25T17:19:56.495Z,75.54
2023-03-25T17:22:33.041Z,75.36
2023-03-25T17:25:18.730Z,72.87
2023-03-25T17:27:48.842Z,70.92
2023-03-25T17:30:32.906Z,73.48
2023-03-25T17:33:40.629Z,72.79
2023-03-25T17:36:13.074Z,72.51
2023-03-25T17:38:47.732Z,72.58
2023-03-25T17:41:21.564Z,73.83
2023-03-25T17:43:54.556Z,74.36
2023-03-25T17:46:28.786Z,74.81
2023-03-25T17:48:58.591Z,74.94
2023-03-25T17:51:31.450Z,73.65
2023-03-25T17:53:59.858Z,73.92
2023-03-25T17:56:28.708Z,73.81
2023-03-25T17:59:08.147Z,73.53
2023-03-25T18:01:36.582Z,73.61
2023-03-25T18:04:05.214Z,73.31
2023-03-25T18:06:32.836Z,74.28
2023-03-25T18:09:02.922Z,73.80
2023-03-25T18:11:32.125Z,73.50
2023-03-25T18:13:59.678Z,73.52
2023-03-25T18:16:28.161Z,73.09
2023-03-25T18:19:03.689Z,72.93
2023-03-25T18:21:32.281Z,73.22
2023-03-25T18:24:02.567Z,74.58
2023-03-25T18:26:30.233Z,75.08
2023-03-25T18:29:02.974Z,74.90
2023-03-25T18:31:31.041Z,76.24
2023-03-25T18:33:58.677Z,77.61
2023-03-25T18:36:27.281Z,78.58
2023-03-25T18:38:57.187Z,78.97
2023-03-25T18:41:26.860Z,80.03
2023-03-25T18:43:58.687Z,81.72
2023-03-25T18:46:28.132Z,82.80
2023-03-25T18:49:02.861Z,83.57
2023-03-25T18:51:32.009Z,84.28
2023-03-25T18:54:01.145Z,84.45
2023-03-25T18:56:29.393Z,84.09
2023-03-25T18:58:58.855Z,83.81
2023-03-25T19:01:27.308Z,84.09
2023-03-25T19:04:05.145Z,85.63
2023-03-25T19:06:34.519Z,87.24
2023-03-25T19:09:04.650Z,88.28
2023-03-25T19:11:34.877Z,87.45
2023-03-25T19:14:04.743Z,84.97
2023-03-25T19:16:35.410Z,82.69
2023-03-25T19:19:10.390Z,80.30
2023-03-25T19:21:42.679Z,80.15
2023-03-25T19:24:10.995Z,81.60
2023-03-25T19:26:41.365Z,82.27
2023-03-25T19:29:10.176Z,83.24
2023-03-25T19:31:38.963Z,83.82
2023-03-25T19:34:09.023Z,83.61
2023-03-25T19:36:37.010Z,82.94
2023-03-25T19:39:07.875Z,81.46
2023-03-25T19:41:42.957Z,81.70
2023-03-25T19:44:14.675Z,81.44
2023-03-25T19:46:50.630Z,81.36
2023-03-25T19:49:29.193Z,81.39
2023-03-25T19:52:07.227Z,80.76
2023-03-25T19:54:44.554Z,80.14
2023-03-25T19:57:20.029Z,79.57
2023-03-25T19:59:48.951Z,80.18
2023-03-25T20:02:18.252Z,80.44
2023-03-25T20:04:49.679Z,80.74
2023-03-25T20:07:17.946Z,80.25
2023-03-25T20:09:46.258Z,80.16
2023-03-25T20:12:15.060Z,79.11
2023-03-25T20:14:50.728Z,79.27
2023-03-25T20:17:19.181Z,79.09
2023-03-25T20:19:49.784Z,79.81
2023-03-25T20:22:24.915Z,79.01
2023-03-25T20:24:56.829Z,79.71
2023-03-25T20:27:31.223Z,80.88
2023-03-25T20:30:06.739Z,80.34
2023-03-25T20:32:41.222Z,78.68
2023-03-25T20:35:13.612Z,78.50
2023-03-25T20:37:43.860Z,78.10
2023-03-25T20:40:16.829Z,77.49
2023-03-25T20:42:46.664Z,75.86
2023-03-25T20:45:17.840Z,77.22
2023-03-25T20:47:48.563Z,75.63
2023-03-25T20:50:19.972Z,75.01
2023-03-25T20:52:48.750Z,75.07
2023-03-25T20:55:18.263Z,73.83
2023-03-25T20:57:45.873Z,74.59
2023-03-25T21:00:15.052Z,74.14
2023-03-25T21:02:44.821Z,74.56
2023-03-25T21:05:12.759Z,74.39
2023-03-25T21:07:41.818Z,74.79
2023-03-25T21:10:10.483Z,73.41
2023-03-25T21:12:43.935Z,74.57
2023-03-25T21:15:15.987Z,75.06
2023-03-25T21:17:45.836Z,75.28
2023-03-25T21:20:14.901Z,75.33
2023-03-25T21:22:44.606Z,75.33
2023-03-25T21:25:15.255Z,75.92
2023-03-25T21:27:45.531Z,76.21
2023-03-25T21:30:16.948Z,77.55
2023-03-25T21:32:46.439Z,77.24
2023-03-25T21:35:15.152Z,77.04
2023-03-25T21:37:42.444Z,77.11
2023-03-25T21:40:12.373Z,76.70
2023-03-25T21:42:43.573Z,75.98
2023-03-25T21:45:16.182Z,76.36
2023-03-25T21:47:53.583Z,76.15
2023-03-25T21:50:21.980Z,75.74
2023-03-25T21:52:49.523Z,75.69
2023-03-25T21:55:17.824Z,76.20
2023-03-25T21:57:45.300Z,75.87
2023-03-25T22:00:17.053Z,76.69
2023-03-25T22:02:45.740Z,77.18
2023-03-25T22:05:16.824Z,76.70
2023-03-25T22:07:45.623Z,76.84
2023-03-25T22:10:13.194Z,76.70
2023-03-25T22:12:40.834Z,76.79
2023-03-25T22:15:09.408Z,76.41
2023-03-25T22:17:37.666Z,76.32
2023-03-25T22:20:05.777Z,76.39
2023-03-25T22:22:33.406Z,76.51
2023-03-25T22:25:01.225Z,76.89
2023-03-25T22:27:28.526Z,77.56
2023-03-25T22:29:55.999Z,77.37
2023-03-25T22:32:27.258Z,77.92
2023-03-25T22:34:54.838Z,78.37
2023-03-25T22:37:22.096Z,78.08
2023-03-25T22:39:49.204Z,78.65
2023-03-25T22:42:16.758Z,78.33
2023-03-25T22:44:44.990Z,77.92
2023-03-25T22:47:12.460Z,78.32
2023-03-25T22:49:42.205Z,78.14
2023-03-25T22:52:09.659Z,78.96
2023-03-25T22:54:39.281Z,78.25
2023-03-25T22:57:08.659Z,78.52
2023-03-25T22:59:36.316Z,78.39
2023-03-25T23:02:03.681Z,78.56
2023-03-25T23:04:38.297Z,78.08
2023-03-25T23:07:08.700Z,78.20
2023-03-25T23:09:42.188Z,78.53
2023-03-25T23:12:17.281Z,78.83
2023-03-25T23:14:54.787Z,78.39
2023-03-25T23:17:26.185Z,78.88
2023-03-25T23:19:53.790Z,78.53
2023-03-25T23:22:21.558Z,78.87
2023-03-25T23:24:49.090Z,78.84
2023-03-25T23:27:16.740Z,79.30
2023-03-25T23:29:43.987Z,79.25
2023-03-25T23:32:11.702Z,79.23
2023-03-25T23:34:45.617Z,79.63
2023-03-25T23:37:12.725Z,79.40
2023-03-25T23:39:40.728Z,79.48
2023-03-25T23:42:15.116Z,79.11
2023-03-25T23:44:45.613Z,78.95
2023-03-25T23:47:13.088Z,79.52
2023-03-25T23:49:40.503Z,80.36
2023-03-25T23:52:11.742Z,80.24
2023-03-25T23:54:40.291Z,79.84
2023-03-25T23:57:07.689Z,79.65
2023-03-25T23:59:37.231Z,79.49
